sensor_id;sensor_type;location;lat;lon;timestamp;P1;durP1;ratioP1;P2;durP2;ratioP2
9254;SDS011;4663;49.120;9.730;2022-11-20T00:01:41;16.30;;;15.20;;
9254;SDS011;4663;49.120;9.730;2022-11-20T00:04:07;16.03;;;14.83;;
9254;SDS011;4663;49.120;9.730;2022-11-20T00:06:33;16.33;;;15.33;;
9254;SDS011;4663;49.120;9.730;2022-11-20T00:08:59;16.80;;;15.70;;
9254;SDS011;4663;49.120;9.730;2022-11-20T00:11:27;16.53;;;15.43;;
9254;SDS011;4663;49.120;9.730;2022-11-20T00:13:55;16.67;;;15.57;;
9254;SDS011;4663;49.120;9.730;2022-11-20T00:16:23;17.33;;;16.20;;
9254;SDS011;4663;49.120;9.730;2022-11-20T00:18:50;17.13;;;15.83;;
9254;SDS011;4663;49.120;9.730;2022-11-20T00:21:22;17.33;;;16.23;;
9254;SDS011;4663;49.120;9.730;2022-11-20T00:23:50;17.00;;;15.90;;
9254;SDS011;4663;49.120;9.730;2022-11-20T00:26:17;17.83;;;16.63;;
9254;SDS011;4663;49.120;9.730;2022-11-20T00:28:49;17.87;;;16.67;;
9254;SDS011;4663;49.120;9.730;2022-11-20T00:31:15;18.07;;;16.87;;
9254;SDS011;4663;49.120;9.730;2022-11-20T00:33:41;18.93;;;17.73;;
9254;SDS011;4663;49.120;9.730;2022-11-20T00:36:09;18.37;;;17.17;;
9254;SDS011;4663;49.120;9.730;2022-11-20T00:38:36;16.97;;;15.87;;
9254;SDS011;4663;49.120;9.730;2022-11-20T00:41:03;17.40;;;16.30;;
9254;SDS011;4663;49.120;9.730;2022-11-20T00:43:30;16.87;;;15.77;;
9254;SDS011;4663;49.120;9.730;2022-11-20T00:45:59;17.53;;;16.33;;
9254;SDS011;4663;49.120;9.730;2022-11-20T00:48:29;17.03;;;15.93;;
9254;SDS011;4663;49.120;9.730;2022-11-20T00:50:55;16.17;;;15.13;;
9254;SDS011;4663;49.120;9.730;2022-11-20T00:53:21;15.63;;;14.63;;
9254;SDS011;4663;49.120;9.730;2022-11-20T00:55:56;15.77;;;14.77;;
9254;SDS011;4663;49.120;9.730;2022-11-20T00:58:24;16.23;;;15.13;;
9254;SDS011;4663;49.120;9.730;2022-11-20T01:00:50;16.43;;;15.23;;
9254;SDS011;4663;49.120;9.730;2022-11-20T01:03:16;16.17;;;15.10;;
9254;SDS011;4663;49.120;9.730;2022-11-20T01:05:42;17.47;;;16.27;;
9254;SDS011;4663;49.120;9.730;2022-11-20T01:08:08;15.87;;;14.80;;
9254;SDS011;4663;49.120;9.730;2022-11-20T01:10:33;16.93;;;15.73;;
9254;SDS011;4663;49.120;9.730;2022-11-20T01:12:59;17.10;;;15.90;;
9254;SDS011;4663;49.120;9.730;2022-11-20T01:15:47;17.13;;;15.93;;
9254;SDS011;4663;49.120;9.730;2022-11-20T01:18:12;15.70;;;14.50;;
9254;SDS011;4663;49.120;9.730;2022-11-20T01:20:38;17.13;;;16.03;;
9254;SDS011;4663;49.120;9.730;2022-11-20T01:23:03;16.87;;;15.67;;
9254;SDS011;4663;49.120;9.730;2022-11-20T01:25:29;16.40;;;15.20;;
9254;SDS011;4663;49.120;9.730;2022-11-20T01:27:54;15.97;;;14.90;;
9254;SDS011;4663;49.120;9.730;2022-11-20T01:30:20;16.33;;;15.23;;
9254;SDS011;4663;49.120;9.730;2022-11-20T01:32:45;16.67;;;15.57;;
9254;SDS011;4663;49.120;9.730;2022-11-20T01:35:10;16.73;;;15.60;;
9254;SDS011;4663;49.120;9.730;2022-11-20T01:37:36;18.77;;;17.47;;
9254;SDS011;4663;49.120;9.730;2022-11-20T01:40:01;18.63;;;17.40;;
9254;SDS011;4663;49.120;9.730;2022-11-20T01:45:42;17.27;;;16.13;;
9254;SDS011;4663;49.120;9.730;2022-11-20T01:48:05;17.50;;;16.30;;
9254;SDS011;4663;49.120;9.730;2022-11-20T01:50:31;18.57;;;17.33;;
9254;SDS011;4663;49.120;9.730;2022-11-20T01:53:02;19.27;;;17.87;;
9254;SDS011;4663;49.120;9.730;2022-11-20T01:55:33;18.80;;;17.50;;
9254;SDS011;4663;49.120;9.730;2022-11-20T01:58:01;18.70;;;17.33;;
9254;SDS011;4663;49.120;9.730;2022-11-20T02:00:28;20.13;;;18.83;;
9254;SDS011;4663;49.120;9.730;2022-11-20T02:02:55;21.63;;;20.00;;
9254;SDS011;4663;49.120;9.730;2022-11-20T02:05:34;24.17;;;22.57;;
9254;SDS011;4663;49.120;9.730;2022-11-20T02:08:03;23.90;;;22.17;;
9254;SDS011;4663;49.120;9.730;2022-11-20T02:10:30;24.03;;;22.50;;
9254;SDS011;4663;49.120;9.730;2022-11-20T02:12:57;27.23;;;25.43;;
9254;SDS011;4663;49.120;9.730;2022-11-20T02:15:41;26.07;;;24.37;;
9254;SDS011;4663;49.120;9.730;2022-11-20T02:18:07;26.53;;;24.77;;
9254;SDS011;4663;49.120;9.730;2022-11-20T02:20:34;27.87;;;26.23;;
9254;SDS011;4663;49.120;9.730;2022-11-20T02:25:33;26.07;;;24.47;;
9254;SDS011;4663;49.120;9.730;2022-11-20T02:28:02;28.60;;;26.80;;
9254;SDS011;4663;49.120;9.730;2022-11-20T02:30:28;29.53;;;27.53;;
9254;SDS011;4663;49.120;9.730;2022-11-20T02:32:53;31.90;;;29.73;;
9254;SDS011;4663;49.120;9.730;2022-11-20T02:37:44;36.10;;;33.97;;
9254;SDS011;4663;49.120;9.730;2022-11-20T02:40:12;39.40;;;37.10;;
9254;SDS011;4663;49.120;9.730;2022-11-20T02:42:38;37.40;;;35.23;;
9254;SDS011;4663;49.120;9.730;2022-11-20T02:45:04;42.17;;;39.63;;
9254;SDS011;4663;49.120;9.730;2022-11-20T02:47:30;44.27;;;41.70;;
9254;SDS011;4663;49.120;9.730;2022-11-20T02:49:56;44.23;;;41.57;;
9254;SDS011;4663;49.120;9.730;2022-11-20T02:52:21;46.37;;;43.47;;
9254;SDS011;4663;49.120;9.730;2022-11-20T02:54:47;47.83;;;44.97;;
9254;SDS011;4663;49.120;9.730;2022-11-20T02:57:12;44.57;;;41.97;;
9254;SDS011;4663;49.120;9.730;2022-11-20T02:59:38;47.77;;;44.90;;
9254;SDS011;4663;49.120;9.730;2022-11-20T03:02:03;48.37;;;45.60;;
9254;SDS011;4663;49.120;9.730;2022-11-20T03:04:29;50.33;;;47.20;;
9254;SDS011;4663;49.120;9.730;2022-11-20T03:06:55;46.43;;;43.43;;
9254;SDS011;4663;49.120;9.730;2022-11-20T03:09:20;48.70;;;45.77;;
9254;SDS011;4663;49.120;9.730;2022-11-20T03:11:46;47.47;;;44.30;;
9254;SDS011;4663;49.120;9.730;2022-11-20T03:14:11;52.27;;;48.87;;
9254;SDS011;4663;49.120;9.730;2022-11-20T03:16:37;46.10;;;43.33;;
9254;SDS011;4663;49.120;9.730;2022-11-20T03:19:02;47.87;;;44.83;;
9254;SDS011;4663;49.120;9.730;2022-11-20T03:21:27;43.93;;;41.20;;
9254;SDS011;4663;49.120;9.730;2022-11-20T03:23:53;43.20;;;40.30;;
9254;SDS011;4663;49.120;9.730;2022-11-20T03:26:19;40.87;;;38.27;;
9254;SDS011;4663;49.120;9.730;2022-11-20T03:28:47;39.03;;;36.53;;
9254;SDS011;4663;49.120;9.730;2022-11-20T03:31:14;37.00;;;34.53;;
9254;SDS011;4663;49.120;9.730;2022-11-20T03:33:41;36.13;;;33.70;;
9254;SDS011;4663;49.120;9.730;2022-11-20T03:36:08;37.90;;;35.33;;
9254;SDS011;4663;49.120;9.730;2022-11-20T03:38:35;36.20;;;33.87;;
9254;SDS011;4663;49.120;9.730;2022-11-20T03:41:05;34.17;;;31.87;;
9254;SDS011;4663;49.120;9.730;2022-11-20T03:43:35;35.93;;;33.50;;
9254;SDS011;4663;49.120;9.730;2022-11-20T03:46:01;32.40;;;30.27;;
9254;SDS011;4663;49.120;9.730;2022-11-20T03:48:27;30.57;;;28.50;;
9254;SDS011;4663;49.120;9.730;2022-11-20T03:50:53;29.70;;;27.73;;
9254;SDS011;4663;49.120;9.730;2022-11-20T03:53:31;30.00;;;28.10;;
9254;SDS011;4663;49.120;9.730;2022-11-20T03:55:56;30.50;;;28.60;;
9254;SDS011;4663;49.120;9.730;2022-11-20T03:58:21;30.00;;;27.90;;
9254;SDS011;4663;49.120;9.730;2022-11-20T04:00:47;29.17;;;27.17;;
9254;SDS011;4663;49.120;9.730;2022-11-20T04:03:12;27.50;;;25.70;;
9254;SDS011;4663;49.120;9.730;2022-11-20T04:05:37;29.47;;;27.20;;
9254;SDS011;4663;49.120;9.730;2022-11-20T04:08:03;27.43;;;25.53;;
9254;SDS011;4663;49.120;9.730;2022-11-20T04:10:28;23.53;;;22.03;;
9254;SDS011;4663;49.120;9.730;2022-11-20T04:12:54;24.43;;;22.73;;
9254;SDS011;4663;49.120;9.730;2022-11-20T04:15:19;25.60;;;23.83;;
9254;SDS011;4663;49.120;9.730;2022-11-20T04:17:47;24.77;;;23.07;;
9254;SDS011;4663;49.120;9.730;2022-11-20T04:20:12;23.17;;;21.57;;
9254;SDS011;4663;49.120;9.730;2022-11-20T04:22:38;24.97;;;23.03;;
9254;SDS011;4663;49.120;9.730;2022-11-20T04:25:03;25.20;;;23.50;;
9254;SDS011;4663;49.120;9.730;2022-11-20T04:27:30;23.80;;;22.17;;
9254;SDS011;4663;49.120;9.730;2022-11-20T04:29:55;23.93;;;22.43;;
9254;SDS011;4663;49.120;9.730;2022-11-20T04:32:21;25.30;;;23.57;;
9254;SDS011;4663;49.120;9.730;2022-11-20T04:34:46;24.20;;;22.53;;
9254;SDS011;4663;49.120;9.730;2022-11-20T04:37:11;23.17;;;21.57;;
9254;SDS011;4663;49.120;9.730;2022-11-20T04:39:37;22.50;;;21.00;;
9254;SDS011;4663;49.120;9.730;2022-11-20T04:42:02;25.10;;;23.40;;
9254;SDS011;4663;49.120;9.730;2022-11-20T04:44:46;24.20;;;22.50;;
9254;SDS011;4663;49.120;9.730;2022-11-20T04:47:12;23.00;;;21.60;;
9254;SDS011;4663;49.120;9.730;2022-11-20T04:49:37;24.37;;;22.80;;
9254;SDS011;4663;49.120;9.730;2022-11-20T04:52:02;23.37;;;21.80;;
9254;SDS011;4663;49.120;9.730;2022-11-20T04:54:28;22.10;;;20.50;;
9254;SDS011;4663;49.120;9.730;2022-11-20T04:56:53;21.83;;;20.33;;
9254;SDS011;4663;49.120;9.730;2022-11-20T04:59:18;21.70;;;20.30;;
9254;SDS011;4663;49.120;9.730;2022-11-20T05:01:44;20.77;;;19.33;;
9254;SDS011;4663;49.120;9.730;2022-11-20T05:04:09;19.97;;;18.70;;
9254;SDS011;4663;49.120;9.730;2022-11-20T05:06:34;19.57;;;18.33;;
9254;SDS011;4663;49.120;9.730;2022-11-20T05:09:00;19.53;;;18.23;;
9254;SDS011;4663;49.120;9.730;2022-11-20T05:11:26;18.70;;;17.53;;
9254;SDS011;4663;49.120;9.730;2022-11-20T05:14:00;17.80;;;16.47;;
9254;SDS011;4663;49.120;9.730;2022-11-20T05:16:25;19.57;;;18.07;;
9254;SDS011;4663;49.120;9.730;2022-11-20T05:18:51;18.10;;;16.80;;
9254;SDS011;4663;49.120;9.730;2022-11-20T05:21:18;18.30;;;17.07;;
9254;SDS011;4663;49.120;9.730;2022-11-20T05:23:44;18.37;;;17.17;;
9254;SDS011;4663;49.120;9.730;2022-11-20T05:26:17;18.27;;;17.17;;
9254;SDS011;4663;49.120;9.730;2022-11-20T05:28:44;17.77;;;16.67;;
9254;SDS011;4663;49.120;9.730;2022-11-20T05:31:17;19.67;;;18.40;;
9254;SDS011;4663;49.120;9.730;2022-11-20T05:33:44;18.83;;;17.53;;
9254;SDS011;4663;49.120;9.730;2022-11-20T05:36:11;18.53;;;17.40;;
9254;SDS011;4663;49.120;9.730;2022-11-20T05:38:38;18.23;;;17.07;;
9254;SDS011;4663;49.120;9.730;2022-11-20T05:41:14;19.77;;;18.53;;
9254;SDS011;4663;49.120;9.730;2022-11-20T05:43:42;19.53;;;18.43;;
9254;SDS011;4663;49.120;9.730;2022-11-20T05:46:09;17.47;;;16.43;;
9254;SDS011;4663;49.120;9.730;2022-11-20T05:48:36;18.20;;;17.17;;
9254;SDS011;4663;49.120;9.730;2022-11-20T05:51:03;18.33;;;17.23;;
9254;SDS011;4663;49.120;9.730;2022-11-20T05:53:30;17.83;;;16.73;;
9254;SDS011;4663;49.120;9.730;2022-11-20T05:56:01;18.67;;;17.57;;
9254;SDS011;4663;49.120;9.730;2022-11-20T05:58:35;20.57;;;19.27;;
9254;SDS011;4663;49.120;9.730;2022-11-20T06:01:08;20.37;;;19.07;;
9254;SDS011;4663;49.120;9.730;2022-11-20T06:03:41;20.80;;;19.57;;
9254;SDS011;4663;49.120;9.730;2022-11-20T06:06:10;20.43;;;19.17;;
9254;SDS011;4663;49.120;9.730;2022-11-20T06:08:36;21.87;;;20.50;;
9254;SDS011;4663;49.120;9.730;2022-11-20T06:11:05;21.43;;;20.17;;
9254;SDS011;4663;49.120;9.730;2022-11-20T06:13:32;21.87;;;20.67;;
9254;SDS011;4663;49.120;9.730;2022-11-20T06:15:58;20.70;;;19.50;;
9254;SDS011;4663;49.120;9.730;2022-11-20T06:18:25;20.23;;;18.93;;
9254;SDS011;4663;49.120;9.730;2022-11-20T06:20:58;22.03;;;20.60;;
9254;SDS011;4663;49.120;9.730;2022-11-20T06:23:24;20.07;;;18.83;;
9254;SDS011;4663;49.120;9.730;2022-11-20T06:25:49;20.10;;;18.90;;
9254;SDS011;4663;49.120;9.730;2022-11-20T06:28:15;20.33;;;19.13;;
9254;SDS011;4663;49.120;9.730;2022-11-20T06:30:44;21.60;;;20.07;;
9254;SDS011;4663;49.120;9.730;2022-11-20T06:33:10;20.17;;;19.07;;
9254;SDS011;4663;49.120;9.730;2022-11-20T06:35:35;20.80;;;19.40;;
9254;SDS011;4663;49.120;9.730;2022-11-20T06:38:00;18.90;;;17.80;;
9254;SDS011;4663;49.120;9.730;2022-11-20T06:40:26;20.17;;;18.80;;
9254;SDS011;4663;49.120;9.730;2022-11-20T06:42:53;19.60;;;18.40;;
9254;SDS011;4663;49.120;9.730;2022-11-20T06:45:18;20.00;;;18.90;;
9254;SDS011;4663;49.120;9.730;2022-11-20T06:47:44;19.80;;;18.60;;
9254;SDS011;4663;49.120;9.730;2022-11-20T06:50:09;20.07;;;18.87;;
9254;SDS011;4663;49.120;9.730;2022-11-20T06:52:34;19.57;;;18.27;;
9254;SDS011;4663;49.120;9.730;2022-11-20T06:55:00;19.73;;;18.57;;
9254;SDS011;4663;49.120;9.730;2022-11-20T06:57:25;20.90;;;19.53;;
9254;SDS011;4663;49.120;9.730;2022-11-20T06:59:50;17.77;;;16.67;;
9254;SDS011;4663;49.120;9.730;2022-11-20T07:02:16;17.80;;;16.80;;
9254;SDS011;4663;49.120;9.730;2022-11-20T07:04:41;17.47;;;16.47;;
9254;SDS011;4663;49.120;9.730;2022-11-20T07:07:06;17.43;;;16.33;;
9254;SDS011;4663;49.120;9.730;2022-11-20T07:09:33;18.37;;;17.27;;
9254;SDS011;4663;49.120;9.730;2022-11-20T07:11:58;17.60;;;16.60;;
9254;SDS011;4663;49.120;9.730;2022-11-20T07:14:24;18.73;;;17.63;;
9254;SDS011;4663;49.120;9.730;2022-11-20T07:16:49;17.23;;;16.17;;
9254;SDS011;4663;49.120;9.730;2022-11-20T07:19:15;17.87;;;16.83;;
9254;SDS011;4663;49.120;9.730;2022-11-20T07:21:40;17.00;;;16.00;;
9254;SDS011;4663;49.120;9.730;2022-11-20T07:24:05;17.10;;;15.87;;
9254;SDS011;4663;49.120;9.730;2022-11-20T07:26:31;18.37;;;17.27;;
9254;SDS011;4663;49.120;9.730;2022-11-20T07:28:57;18.83;;;17.53;;
9254;SDS011;4663;49.120;9.730;2022-11-20T07:31:22;17.37;;;16.33;;
9254;SDS011;4663;49.120;9.730;2022-11-20T07:33:48;16.87;;;15.87;;
9254;SDS011;4663;49.120;9.730;2022-11-20T07:36:13;16.47;;;15.57;;
9254;SDS011;4663;49.120;9.730;2022-11-20T07:38:39;16.83;;;15.83;;
9254;SDS011;4663;49.120;9.730;2022-11-20T07:41:04;17.10;;;16.10;;
9254;SDS011;4663;49.120;9.730;2022-11-20T07:43:29;16.40;;;15.50;;
9254;SDS011;4663;49.120;9.730;2022-11-20T07:45:56;16.90;;;15.90;;
9254;SDS011;4663;49.120;9.730;2022-11-20T07:48:22;16.67;;;15.67;;
9254;SDS011;4663;49.120;9.730;2022-11-20T07:50:48;16.30;;;15.40;;
9254;SDS011;4663;49.120;9.730;2022-11-20T07:53:13;17.17;;;16.17;;
9254;SDS011;4663;49.120;9.730;2022-11-20T07:55:39;16.83;;;15.73;;
9254;SDS011;4663;49.120;9.730;2022-11-20T07:58:04;18.30;;;17.20;;
9254;SDS011;4663;49.120;9.730;2022-11-20T08:00:29;18.70;;;17.43;;
9254;SDS011;4663;49.120;9.730;2022-11-20T08:02:55;17.93;;;16.90;;
9254;SDS011;4663;49.120;9.730;2022-11-20T08:05:21;18.07;;;16.90;;
9254;SDS011;4663;49.120;9.730;2022-11-20T08:07:46;16.77;;;15.77;;
9254;SDS011;4663;49.120;9.730;2022-11-20T08:10:13;17.73;;;16.67;;
9254;SDS011;4663;49.120;9.730;2022-11-20T08:12:43;17.47;;;16.37;;
9254;SDS011;4663;49.120;9.730;2022-11-20T08:15:31;18.07;;;17.07;;
9254;SDS011;4663;49.120;9.730;2022-11-20T08:18:05;15.97;;;15.07;;
9254;SDS011;4663;49.120;9.730;2022-11-20T08:20:36;15.97;;;15.07;;
9254;SDS011;4663;49.120;9.730;2022-11-20T08:23:06;18.50;;;17.50;;
9254;SDS011;4663;49.120;9.730;2022-11-20T08:25:33;17.33;;;16.23;;
9254;SDS011;4663;49.120;9.730;2022-11-20T08:28:00;18.40;;;17.20;;
9254;SDS011;4663;49.120;9.730;2022-11-20T08:30:27;16.00;;;15.00;;
9254;SDS011;4663;49.120;9.730;2022-11-20T08:32:53;15.70;;;14.80;;
9254;SDS011;4663;49.120;9.730;2022-11-20T08:35:19;17.60;;;16.53;;
9254;SDS011;4663;49.120;9.730;2022-11-20T08:37:46;16.00;;;15.10;;
9254;SDS011;4663;49.120;9.730;2022-11-20T08:40:12;16.57;;;15.63;;
9254;SDS011;4663;49.120;9.730;2022-11-20T08:42:45;16.83;;;15.87;;
9254;SDS011;4663;49.120;9.730;2022-11-20T08:45:11;14.17;;;13.37;;
9254;SDS011;4663;49.120;9.730;2022-11-20T08:47:36;15.53;;;14.63;;
9254;SDS011;4663;49.120;9.730;2022-11-20T08:50:01;17.47;;;16.37;;
9254;SDS011;4663;49.120;9.730;2022-11-20T08:52:27;16.20;;;15.20;;
9254;SDS011;4663;49.120;9.730;2022-11-20T08:54:53;17.57;;;16.47;;
9254;SDS011;4663;49.120;9.730;2022-11-20T08:57:18;17.23;;;16.23;;
9254;SDS011;4663;49.120;9.730;2022-11-20T08:59:43;15.13;;;14.23;;
9254;SDS011;4663;49.120;9.730;2022-11-20T09:02:09;16.60;;;15.70;;
9254;SDS011;4663;49.120;9.730;2022-11-20T09:04:34;15.30;;;14.43;;
9254;SDS011;4663;49.120;9.730;2022-11-20T09:07:00;16.20;;;15.30;;
9254;SDS011;4663;49.120;9.730;2022-11-20T09:09:25;16.17;;;15.27;;
9254;SDS011;4663;49.120;9.730;2022-11-20T09:11:51;14.60;;;13.77;;
9254;SDS011;4663;49.120;9.730;2022-11-20T09:14:16;15.47;;;14.57;;
9254;SDS011;4663;49.120;9.730;2022-11-20T09:16:41;16.23;;;15.33;;
9254;SDS011;4663;49.120;9.730;2022-11-20T09:19:07;16.50;;;15.60;;
9254;SDS011;4663;49.120;9.730;2022-11-20T09:21:32;15.03;;;14.23;;
9254;SDS011;4663;49.120;9.730;2022-11-20T09:23:58;15.10;;;14.20;;
9254;SDS011;4663;49.120;9.730;2022-11-20T09:26:23;14.67;;;13.87;;
9254;SDS011;4663;49.120;9.730;2022-11-20T09:28:48;15.60;;;14.80;;
9254;SDS011;4663;49.120;9.730;2022-11-20T09:31:17;17.33;;;16.43;;
9254;SDS011;4663;49.120;9.730;2022-11-20T09:33:47;15.70;;;14.90;;
9254;SDS011;4663;49.120;9.730;2022-11-20T09:36:12;15.83;;;15.03;;
9254;SDS011;4663;49.120;9.730;2022-11-20T09:38:38;15.20;;;14.40;;
9254;SDS011;4663;49.120;9.730;2022-11-20T09:41:04;15.70;;;14.80;;
9254;SDS011;4663;49.120;9.730;2022-11-20T09:48:36;15.73;;;14.93;;
9254;SDS011;4663;49.120;9.730;2022-11-20T09:51:20;16.83;;;16.00;;
9254;SDS011;4663;49.120;9.730;2022-11-20T09:54:08;18.47;;;17.43;;
9254;SDS011;4663;49.120;9.730;2022-11-20T09:56:36;21.30;;;19.80;;
9254;SDS011;4663;49.120;9.730;2022-11-20T09:59:04;20.63;;;19.50;;
9254;SDS011;4663;49.120;9.730;2022-11-20T10:01:34;25.53;;;23.90;;
9254;SDS011;4663;49.120;9.730;2022-11-20T10:04:04;24.17;;;22.73;;
9254;SDS011;4663;49.120;9.730;2022-11-20T10:09:29;25.87;;;24.57;;
9254;SDS011;4663;49.120;9.730;2022-11-20T10:12:14;31.57;;;29.87;;
9254;SDS011;4663;49.120;9.730;2022-11-20T10:32:03;40.40;;;38.30;;
9254;SDS011;4663;49.120;9.730;2022-11-20T10:34:19;42.03;;;39.83;;
9254;SDS011;4663;49.120;9.730;2022-11-20T10:37:22;53.60;;;49.13;;
9254;SDS011;4663;49.120;9.730;2022-11-20T10:39:51;50.47;;;46.90;;
9254;SDS011;4663;49.120;9.730;2022-11-20T10:47:46;38.23;;;36.23;;
9254;SDS011;4663;49.120;9.730;2022-11-20T10:50:13;40.53;;;38.43;;
9254;SDS011;4663;49.120;9.730;2022-11-20T10:55:45;42.90;;;40.67;;
9254;SDS011;4663;49.120;9.730;2022-11-20T11:01:15;45.00;;;42.70;;
9254;SDS011;4663;49.120;9.730;2022-11-20T11:03:42;49.80;;;47.30;;
9254;SDS011;4663;49.120;9.730;2022-11-20T11:06:12;45.53;;;43.30;;
9254;SDS011;4663;49.120;9.730;2022-11-20T11:09:01;45.13;;;42.83;;
9254;SDS011;4663;49.120;9.730;2022-11-20T11:11:41;44.30;;;41.90;;
9254;SDS011;4663;49.120;9.730;2022-11-20T11:16:32;40.53;;;38.37;;
9254;SDS011;4663;49.120;9.730;2022-11-20T11:19:10;38.67;;;36.63;;
9254;SDS011;4663;49.120;9.730;2022-11-20T11:21:37;37.03;;;35.20;;
9254;SDS011;4663;49.120;9.730;2022-11-20T11:24:14;35.70;;;33.87;;
9254;SDS011;4663;49.120;9.730;2022-11-20T11:26:50;36.30;;;34.47;;
9254;SDS011;4663;49.120;9.730;2022-11-20T11:29:31;38.57;;;36.63;;
9254;SDS011;4663;49.120;9.730;2022-11-20T11:32:05;34.13;;;32.43;;
9254;SDS011;4663;49.120;9.730;2022-11-20T11:34:37;38.27;;;36.13;;
9254;SDS011;4663;49.120;9.730;2022-11-20T11:37:02;38.63;;;36.43;;
9254;SDS011;4663;49.120;9.730;2022-11-20T11:39:30;40.80;;;38.40;;
9254;SDS011;4663;49.120;9.730;2022-11-20T11:41:58;41.57;;;39.27;;
9254;SDS011;4663;49.120;9.730;2022-11-20T11:47:21;40.30;;;38.27;;
9254;SDS011;4663;49.120;9.730;2022-11-20T11:49:49;47.10;;;43.80;;
9254;SDS011;4663;49.120;9.730;2022-11-20T11:52:26;51.50;;;47.83;;
9254;SDS011;4663;49.120;9.730;2022-11-20T11:54:57;43.30;;;41.07;;
9254;SDS011;4663;49.120;9.730;2022-11-20T11:57:29;45.20;;;42.83;;
9254;SDS011;4663;49.120;9.730;2022-11-20T12:00:09;42.43;;;40.20;;
9254;SDS011;4663;49.120;9.730;2022-11-20T12:02:36;44.17;;;42.00;;
9254;SDS011;4663;49.120;9.730;2022-11-20T12:05:05;42.93;;;40.73;;
9254;SDS011;4663;49.120;9.730;2022-11-20T12:10:22;44.03;;;41.87;;
9254;SDS011;4663;49.120;9.730;2022-11-20T12:15:48;43.30;;;41.03;;
9254;SDS011;4663;49.120;9.730;2022-11-20T12:18:15;39.83;;;37.77;;
9254;SDS011;4663;49.120;9.730;2022-11-20T12:29:32;41.17;;;39.07;;
9254;SDS011;4663;49.120;9.730;2022-11-20T12:56:17;32.77;;;31.03;;
9254;SDS011;4663;49.120;9.730;2022-11-20T12:59:01;24.63;;;23.40;;
9254;SDS011;4663;49.120;9.730;2022-11-20T13:04:48;20.30;;;19.30;;
9254;SDS011;4663;49.120;9.730;2022-11-20T13:07:02;20.57;;;19.27;;
9254;SDS011;4663;49.120;9.730;2022-11-20T13:09:31;19.23;;;18.13;;
9254;SDS011;4663;49.120;9.730;2022-11-20T13:17:45;19.80;;;18.57;;
9254;SDS011;4663;49.120;9.730;2022-11-20T13:20:17;21.17;;;19.73;;
9254;SDS011;4663;49.120;9.730;2022-11-20T13:25:32;21.07;;;19.77;;
9254;SDS011;4663;49.120;9.730;2022-11-20T13:27:58;25.37;;;23.67;;
9254;SDS011;4663;49.120;9.730;2022-11-20T13:30:50;24.30;;;22.87;;
9254;SDS011;4663;49.120;9.730;2022-11-20T13:33:31;24.77;;;23.23;;
9254;SDS011;4663;49.120;9.730;2022-11-20T13:36:02;24.90;;;23.60;;
9254;SDS011;4663;49.120;9.730;2022-11-20T13:41:29;30.97;;;29.30;;
9254;SDS011;4663;49.120;9.730;2022-11-20T13:46:40;32.50;;;30.43;;
9254;SDS011;4663;49.120;9.730;2022-11-20T13:49:09;29.87;;;28.33;;
9254;SDS011;4663;49.120;9.730;2022-11-20T13:51:46;27.93;;;26.43;;
9254;SDS011;4663;49.120;9.730;2022-11-20T14:02:40;22.17;;;20.93;;
9254;SDS011;4663;49.120;9.730;2022-11-20T14:05:11;19.13;;;18.10;;
9254;SDS011;4663;49.120;9.730;2022-11-20T14:07:44;18.70;;;17.70;;
9254;SDS011;4663;49.120;9.730;2022-11-20T14:10:19;17.83;;;16.75;;
9254;SDS011;4663;49.120;9.730;2022-11-20T14:12:46;17.27;;;16.37;;
9254;SDS011;4663;49.120;9.730;2022-11-20T14:15:23;18.30;;;17.20;;
9254;SDS011;4663;49.120;9.730;2022-11-20T14:17:51;21.17;;;19.73;;
9254;SDS011;4663;49.120;9.730;2022-11-20T14:20:16;19.87;;;18.87;;
9254;SDS011;4663;49.120;9.730;2022-11-20T14:22:48;22.27;;;21.13;;
9254;SDS011;4663;49.120;9.730;2022-11-20T14:27:41;22.13;;;20.73;;
9254;SDS011;4663;49.120;9.730;2022-11-20T14:30:15;20.90;;;19.73;;
9254;SDS011;4663;49.120;9.730;2022-11-20T14:32:46;22.87;;;21.60;;
9254;SDS011;4663;49.120;9.730;2022-11-20T14:35:16;22.27;;;21.17;;
9254;SDS011;4663;49.120;9.730;2022-11-20T14:37:46;24.03;;;22.63;;
9254;SDS011;4663;49.120;9.730;2022-11-20T14:40:31;24.70;;;23.33;;
9254;SDS011;4663;49.120;9.730;2022-11-20T14:43:01;28.70;;;27.23;;
9254;SDS011;4663;49.120;9.730;2022-11-20T14:45:40;30.90;;;29.27;;
9254;SDS011;4663;49.120;9.730;2022-11-20T14:48:08;31.27;;;29.70;;
9254;SDS011;4663;49.120;9.730;2022-11-20T14:50:35;33.43;;;31.67;;
9254;SDS011;4663;49.120;9.730;2022-11-20T14:53:03;35.67;;;33.87;;
9254;SDS011;4663;49.120;9.730;2022-11-20T14:55:35;37.77;;;35.77;;
9254;SDS011;4663;49.120;9.730;2022-11-20T14:58:04;40.47;;;38.30;;
9254;SDS011;4663;49.120;9.730;2022-11-20T15:00:56;41.77;;;39.67;;
9254;SDS011;4663;49.120;9.730;2022-11-20T15:03:31;36.40;;;34.50;;
9254;SDS011;4663;49.120;9.730;2022-11-20T15:05:57;33.87;;;32.17;;
9254;SDS011;4663;49.120;9.730;2022-11-20T15:08:22;35.87;;;33.67;;
9254;SDS011;4663;49.120;9.730;2022-11-20T15:10:50;43.90;;;41.50;;
9254;SDS011;4663;49.120;9.730;2022-11-20T15:13:19;25.93;;;24.57;;
9254;SDS011;4663;49.120;9.730;2022-11-20T15:15:53;23.40;;;22.27;;
9254;SDS011;4663;49.120;9.730;2022-11-20T15:18:41;19.43;;;18.27;;
9254;SDS011;4663;49.120;9.730;2022-11-20T15:21:12;14.30;;;13.50;;
9254;SDS011;4663;49.120;9.730;2022-11-20T15:23:39;13.40;;;12.63;;
9254;SDS011;4663;49.120;9.730;2022-11-20T15:26:05;12.63;;;11.93;;
9254;SDS011;4663;49.120;9.730;2022-11-20T15:28:36;14.17;;;13.27;;
9254;SDS011;4663;49.120;9.730;2022-11-20T15:31:04;12.93;;;12.23;;
9254;SDS011;4663;49.120;9.730;2022-11-20T15:33:32;12.80;;;11.87;;
9254;SDS011;4663;49.120;9.730;2022-11-20T15:35:58;12.23;;;11.53;;
9254;SDS011;4663;49.120;9.730;2022-11-20T15:38:23;13.47;;;12.67;;
9254;SDS011;4663;49.120;9.730;2022-11-20T15:40:49;12.43;;;11.53;;
9254;SDS011;4663;49.120;9.730;2022-11-20T15:43:14;14.00;;;13.20;;
9254;SDS011;4663;49.120;9.730;2022-11-20T15:45:41;12.87;;;12.07;;
9254;SDS011;4663;49.120;9.730;2022-11-20T15:48:17;12.37;;;11.77;;
9254;SDS011;4663;49.120;9.730;2022-11-20T15:53:32;14.33;;;13.43;;
9254;SDS011;4663;49.120;9.730;2022-11-20T15:55:57;14.33;;;13.53;;
9254;SDS011;4663;49.120;9.730;2022-11-20T15:58:23;17.97;;;17.00;;
9254;SDS011;4663;49.120;9.730;2022-11-20T16:00:50;17.60;;;16.70;;
9254;SDS011;4663;49.120;9.730;2022-11-20T16:03:16;22.37;;;21.13;;
9254;SDS011;4663;49.120;9.730;2022-11-20T16:05:42;23.77;;;22.53;;
9254;SDS011;4663;49.120;9.730;2022-11-20T16:08:08;23.47;;;22.17;;
9254;SDS011;4663;49.120;9.730;2022-11-20T16:10:34;27.77;;;26.33;;
9254;SDS011;4663;49.120;9.730;2022-11-20T16:13:00;27.23;;;25.93;;
9254;SDS011;4663;49.120;9.730;2022-11-20T16:15:45;31.37;;;29.77;;
9254;SDS011;4663;49.120;9.730;2022-11-20T16:18:19;32.50;;;30.70;;
9254;SDS011;4663;49.120;9.730;2022-11-20T16:20:46;35.30;;;33.30;;
9254;SDS011;4663;49.120;9.730;2022-11-20T16:23:15;37.27;;;35.30;;
9254;SDS011;4663;49.120;9.730;2022-11-20T16:25:42;37.47;;;35.67;;
9254;SDS011;4663;49.120;9.730;2022-11-20T16:28:08;36.50;;;34.60;;
9254;SDS011;4663;49.120;9.730;2022-11-20T16:30:34;38.63;;;36.67;;
9254;SDS011;4663;49.120;9.730;2022-11-20T16:33:00;45.30;;;42.87;;
9254;SDS011;4663;49.120;9.730;2022-11-20T16:35:27;42.37;;;39.83;;
9254;SDS011;4663;49.120;9.730;2022-11-20T16:37:53;48.93;;;45.57;;
9254;SDS011;4663;49.120;9.730;2022-11-20T16:40:20;54.30;;;50.00;;
9254;SDS011;4663;49.120;9.730;2022-11-20T16:42:46;55.73;;;51.23;;
9254;SDS011;4663;49.120;9.730;2022-11-20T16:45:11;56.40;;;52.50;;
9254;SDS011;4663;49.120;9.730;2022-11-20T16:47:36;47.30;;;44.57;;
9254;SDS011;4663;49.120;9.730;2022-11-20T16:50:02;46.37;;;43.73;;
9254;SDS011;4663;49.120;9.730;2022-11-20T16:52:29;47.13;;;44.70;;
9254;SDS011;4663;49.120;9.730;2022-11-20T16:54:55;44.23;;;41.93;;